Sunny Clover — H3SY — position and weather

sailwx.info

Track history (hours):
 
Tides and Currents Weather Stations Pressure Air Temp Water Temp Dewpoint Dewpoint Depression Visibility Wind Speed Wind Dir Waves Ship Positions

Sunny Clover

Last reported at 2017-Nov-16 11:41 UTC. Time now 2017-Nov-18 19:37 UTC.
Position N 21°40' E 113°26'.

Length 137 m; draft 7.5 m.

Type: Ship (hazmat cat C). MMSI: 374431000.

Date/timePositionNaut miles runAvg speedWind from/ knotsBaromVisibWave heightAir tempDewpointWater temp
2017-Nov-16 11:41N 21°40' E 113°26'316.2
2017-Nov-16 11:30N 21°41' E 113°29'816.3
2017-Nov-16 11:00N 21°46' E 113°36'2316.6
2017-Nov-16 09:38N 21°57' E 113°58'316.8
2017-Nov-16 09:27N 21°59' E 114°00'1316.5
2017-Nov-16 08:40N 22°07' E 114°11'613.3
2017-Nov-16 08:11N 22°13' E 114°09'210.3
2017-Nov-16 08:00N 22°14' E 114°08'6 9.8
2017-Nov-16 07:26N 22°20' E 114°07'0 0.0
2017-Nov-15 21:26N 22°20' E 114°07'4 8.1
2017-Nov-15 20:53N 22°16' E 114°07'12 8.3
2017-Nov-15 19:26N 22°08' E 114°17'510.7
2017-Nov-15 19:00N 22°08' E 114°22'713.8
2017-Nov-15 18:30N 22°07' E 114°30'713.7
2017-Nov-15 18:00N 22°08' E 114°37'713.7
2017-Nov-15 17:30N 22°08' E 114°45'713.4
2017-Nov-15 16:59N 22°07' E 114°52'6 3.9
2017-Nov-15 15:25N 22°06' E 114°58'5 8.7
2017-Nov-15 14:51N 22°09' E 115°03'412.7
2017-Nov-15 14:30N 22°11' E 115°07'712.6
2017-Nov-15 13:59N 22°14' E 115°13'1813.2
2017-Nov-15 12:38N 22°23' E 115°30'213.4
2017-Nov-15 12:30N 22°23' E 115°32'18115.4
2017-Nov-15 00:46N 23°55' E 118°22'515.8
2017-Nov-15 00:26N 23°59' E 118°26'715.8
2017-Nov-15 00:00N 24°03' E 118°32'1115.6
2017-Nov-14 23:18N 24°10' E 118°41'615.5
2017-Nov-14 22:53N 24°14' E 118°46'  
2017-Nov-09 10:22N 34°54' E 125°04'71414.7
2017-Nov-07 09:44N 24°17' E 118°51'614.6
2017-Nov-07 09:20N 24°14' E 118°47'514.5
2017-Nov-07 09:00N 24°11' E 118°42'814.8
2017-Nov-07 08:29N 24°06' E 118°36'914.9
2017-Nov-07 07:54N 24°01' E 118°28'715.1
2017-Nov-07 07:26N 23°56' E 118°22'  
Track history (hours):
 
Tides and Currents Weather Stations Pressure Air Temp Water Temp Dewpoint Dewpoint Depression Visibility Wind Speed Wind Dir Waves Ship Positions

Sunny Clover

Last reported at 2017-Nov-16 11:41 UTC. Time now 2017-Nov-18 19:37 UTC.
Position N 21°40' E 113°26'.

Length 137 m; draft 7.5 m.

Type: Ship (hazmat cat C). MMSI: 374431000.

Date/timePositionNaut miles runAvg speedWind from/ knotsBaromVisibWave heightAir tempDewpointWater temp
2017-Nov-16 11:41N 21°40' E 113°26'316.2
2017-Nov-16 11:30N 21°41' E 113°29'816.3
2017-Nov-16 11:00N 21°46' E 113°36'2316.6
2017-Nov-16 09:38N 21°57' E 113°58'316.8
2017-Nov-16 09:27N 21°59' E 114°00'1316.5
2017-Nov-16 08:40N 22°07' E 114°11'613.3
2017-Nov-16 08:11N 22°13' E 114°09'210.3
2017-Nov-16 08:00N 22°14' E 114°08'6 9.8
2017-Nov-16 07:26N 22°20' E 114°07'0 0.0
2017-Nov-15 21:26N 22°20' E 114°07'4 8.1
2017-Nov-15 20:53N 22°16' E 114°07'12 8.3
2017-Nov-15 19:26N 22°08' E 114°17'510.7
2017-Nov-15 19:00N 22°08' E 114°22'713.8
2017-Nov-15 18:30N 22°07' E 114°30'713.7
2017-Nov-15 18:00N 22°08' E 114°37'713.7
2017-Nov-15 17:30N 22°08' E 114°45'713.4
2017-Nov-15 16:59N 22°07' E 114°52'6 3.9
2017-Nov-15 15:25N 22°06' E 114°58'5 8.7
2017-Nov-15 14:51N 22°09' E 115°03'412.7
2017-Nov-15 14:30N 22°11' E 115°07'712.6
2017-Nov-15 13:59N 22°14' E 115°13'1813.2
2017-Nov-15 12:38N 22°23' E 115°30'213.4
2017-Nov-15 12:30N 22°23' E 115°32'18115.4
2017-Nov-15 00:46N 23°55' E 118°22'515.8
2017-Nov-15 00:26N 23°59' E 118°26'715.8
2017-Nov-15 00:00N 24°03' E 118°32'1115.6
2017-Nov-14 23:18N 24°10' E 118°41'615.5
2017-Nov-14 22:53N 24°14' E 118°46'  
2017-Nov-09 10:22N 34°54' E 125°04'71414.7
2017-Nov-07 09:44N 24°17' E 118°51'614.6
2017-Nov-07 09:20N 24°14' E 118°47'514.5
2017-Nov-07 09:00N 24°11' E 118°42'814.8
2017-Nov-07 08:29N 24°06' E 118°36'914.9
2017-Nov-07 07:54N 24°01' E 118°28'715.1
2017-Nov-07 07:26N 23°56' E 118°22'  

Dump ship's entire track history